Terminal Aerodrome Forecast
Issued by NWS

Home | Current Version | Previous Version | Text Only | Print | Product List | Glossary On
Versions: 1 2 3 4 5 6 7 8 9 10 11 12 13 14
000
FTUS44 KTSA 301726
TAFFYV
TAF
KFYV 301726Z 3018/3118 16008KT P6SM VCSH BKN060
      TEMPO 3020/3024 2SM +TSRA BKN030CB
     FM310000 13005KT P6SM OVC100
     FM310600 16002KT 3SM BR BKN250
      TEMPO 3108/3112 1SM BR OVC002
     FM311500 17004KT P6SM BKN015=

USA.gov is the U.S. government's official web portal to all federal, state and local government web resources and services.